Latest Weather Observations for Hobart

IDT60801

Issued at 7:31 pm EST Saturday 1 August 2015 (issued every 30 minutes, with the page automatically refreshed every 10 minutes)

About weather observations | Map of weather stations | Latest weather observations for TAS | Other Formats
Station Details ID: 094029 Name: HOBART (ELLERSLIE ROAD) Lat: -42.89 Lon: 147.33 Height: 50.5 m
Data from the previous 72 hours. | See also: Recent months at Hobart
Date/Time
EST
Temp
°C
App
Temp
°C
Dew
Point
Rel
Hum
%
Delta-T
°C
Wind Press
QNH
hPa
Press
MSL
hPa
Rain
since 9 am
mm
Dir
 
Spd
km/h
Gust
km/h
Spd
kts
Gust
kts
01/07:30pm 6.8 0.4 -1.4 56 3.1 N 22 35 12 19 1006.3 1006.4 0.0
01/07:00pm 7.2 1.3 -1.9 52 3.4 NNE 19 35 10 19 1005.8 1005.9 0.0
01/06:30pm 7.4 0.5 -2.3 50 3.6 N 24 35 13 19 1005.7 1005.8 0.0
01/06:00pm 7.4 1.4 -1.9 51 3.5 N 20 28 11 15 1005.0 1005.1 0.0
01/05:30pm 7.4 1.4 -1.9 51 3.5 N 20 35 11 19 1004.7 1004.8 0.0
01/05:00pm 7.6 -0.7 -2.0 50 3.6 NW 32 50 17 27 1004.3 1004.4 0.0
01/04:37pm 7.6 -0.9 -1.6 52 3.5 NNW 33 52 18 28 1003.9 1004.0 0.0
01/04:30pm 7.6 -0.8 -1.3 53 3.4 NW 33 48 18 26 1003.7 1003.8 0.0
01/04:05pm 8.2 -0.2 -2.5 47 4.0 NW 32 50 17 27 1004.1 1004.2 0.0
01/04:00pm 8.2 0.2 -2.1 48 3.9 NW 30 46 16 25 1004.1 1004.2 0.0
01/03:30pm 9.0 1.0 -2.0 46 4.2 WNW 30 48 16 26 1003.8 1003.9 0.0
01/03:00pm 8.5 1.1 -0.7 52 3.6 NW 28 48 15 26 1003.9 1004.0 0.0
01/02:42pm 9.2 0.9 -1.7 46 4.2 NW 32 52 17 28 1003.4 1003.5 0.0
01/02:30pm 9.2 1.2 -2.0 45 4.3 NW 30 43 16 23 1003.2 1003.3 0.0
01/02:13pm 8.9 1.0 -1.4 48 4.0 WNW 30 48 16 26 1003.0 1003.1 0.0
01/02:00pm 8.6 0.7 -1.2 50 3.8 NW 30 46 16 25 1002.9 1003.0 0.0
01/01:30pm 7.6 -0.9 0.6 61 2.8 NW 35 56 19 30 1003.0 1003.1 0.0
01/01:12pm 7.4 0.1 0.1 60 2.9 NW 28 52 15 28 1003.2 1003.3 0.0
01/01:00pm 9.1 2.3 -1.8 46 4.2 NW 24 35 13 19 1003.3 1003.4 0.0
01/12:30pm 9.6 1.1 -2.9 41 4.7 WNW 32 46 17 25 1002.3 1002.4 0.0
01/12:00pm 9.4 2.8 -0.4 50 3.9 WNW 24 33 13 18 1002.5 1002.6 0.0
01/11:30am 9.3 1.9 -3.3 41 4.7 WNW 26 52 14 28 1002.4 1002.5 0.0
01/11:00am 8.9 1.9 -0.8 50 3.8 NW 26 43 14 23 1002.6 1002.7 0.0
01/10:30am 8.8 -0.3 -3.4 42 4.5 WNW 35 63 19 34 1002.4 1002.5 0.0
01/10:15am 8.4 0.5 -4.4 40 4.6 WNW 28 54 15 29 1002.1 1002.2 0.0
01/10:00am 7.8 1.5 -1.3 52 3.5 W 22 37 12 20 1002.3 1002.4 0.0
01/09:38am 8.3 0.5 -3.8 42 4.4 WNW 28 67 15 36 1001.5 1001.6 0.0
01/09:30am 7.9 2.0 -1.9 50 3.7 NNW 19 50 10 27 1001.2 1001.3 0.0
01/09:29am 7.9 2.3 -2.6 47 3.9 NW 17 50 9 27 1000.9 1001.0 0.0
01/09:00am 6.9 0.6 -1.2 56 3.1 WNW 22 37 12 20 1000.3 1000.4 3.0
01/08:51am 7.2 0.0 -1.8 53 3.4 WNW 26 48 14 26 1000.4 1000.5 3.0
01/08:49am 7.3 0.4 -2.4 50 3.6 NW 24 48 13 26 1000.2 1000.3 3.0
01/08:30am 6.5 1.9 1.6 71 2.0 NW 15 24 8 13 1000.1 1000.2 3.0
01/08:00am 6.6 1.9 3.0 78 1.5 WNW 17 30 9 16 1000.2 1000.3 2.8
01/07:30am 6.6 0.9 2.8 77 1.6 NW 22 32 12 17 998.7 998.8 2.6
01/07:00am 6.6 -0.6 2.8 77 1.6 NW 30 39 16 21 997.7 997.8 2.6
01/06:30am 6.9 0.9 3.6 79 1.4 NNW 24 35 13 19 997.5 997.6 2.4
01/06:02am 7.2 0.5 3.5 77 1.6 NW 28 46 15 25 997.4 997.5 2.2
01/06:00am 7.2 0.1 3.5 77 1.6 NW 30 46 16 25 997.2 997.3 2.2
01/05:30am 7.7 -0.6 4.0 77 1.6 WNW 37 61 20 33 996.9 997.0 2.0
01/05:03am 8.2 1.3 4.4 77 1.7 WNW 30 50 16 27 996.7 996.8 0.8
01/05:00am 8.3 1.3 4.2 75 1.8 WNW 30 44 16 24 996.6 996.7 0.6
01/04:30am 9.5 2.6 2.5 61 3.0 NW 28 41 15 22 995.9 996.0 0.0
01/04:09am 10.5 1.9 0.3 49 4.2 NNW 35 59 19 32 995.3 995.4 0.0
01/04:00am 10.6 1.6 0.1 48 4.3 NNW 37 50 20 27 995.7 995.8 0.0
01/03:30am 10.7 2.0 -0.7 45 4.5 NNW 35 54 19 29 995.9 996.0 0.0
01/03:02am 10.5 1.8 -0.7 46 4.5 NNW 35 54 19 29 996.6 996.7 0.0
01/03:00am 10.5 1.8 -0.7 46 4.5 NNW 35 48 19 26 996.7 996.8 0.0
01/02:30am 10.5 1.4 -0.7 46 4.5 NNW 37 59 20 32 997.5 997.6 0.0
01/02:00am 10.3 1.2 -0.7 46 4.4 NNW 37 57 20 31 998.1 998.2 0.0
01/01:30am 10.4 0.1 -0.9 45 4.5 NNW 43 61 23 33 998.6 998.7 0.0
01/01:12am 10.0 1.4 -0.1 49 4.1 NNW 35 56 19 30 998.9 999.0 0.0
01/01:00am 9.8 2.1 0.2 51 3.9 NNW 30 41 16 22 998.7 998.8 0.0
01/12:30am 9.7 2.5 0.4 52 3.8 NNW 28 44 15 24 999.8 999.9 0.0
01/12:00am 9.4 2.9 0.3 53 3.7 NNW 24 39 13 21 1001.6 1001.7 0.0
 
Date/Time
EST
Temp
°C
App
Temp
°C
Dew
Point
Rel
Hum
%
Delta-T
°C
Wind Press
QNH
hPa
Press
MSL
hPa
Rain
since 9 am
mm
Dir
 
Spd
km/h
Gust
km/h
Spd
kts
Gust
kts
31/11:30pm 8.7 3.5 0.2 55 3.4 NNW 17 28 9 15 1002.7 1002.8 0.0
31/11:00pm 8.7 4.3 0.2 55 3.4 N 13 28 7 15 1002.9 1003.0 0.0
31/10:30pm 8.6 3.8 0.1 55 3.4 NNW 15 24 8 13 1004.0 1004.1 0.0
31/10:00pm 8.8 4.4 0.1 54 3.5 NNW 13 22 7 12 1004.4 1004.5 0.0
31/09:30pm 8.8 4.3 -0.3 53 3.6 NNW 13 22 7 12 1005.5 1005.6 0.0
31/09:00pm 9.0 3.4 -0.3 52 3.7 NNW 19 28 10 15 1006.3 1006.4 0.0
31/08:30pm 9.2 1.8 -0.7 50 3.9 N 28 41 15 22 1006.7 1006.8 0.0
31/08:00pm 9.2 1.8 -0.7 50 3.9 N 28 43 15 23 1007.0 1007.1 0.0
31/07:30pm 9.1 2.4 -0.8 50 3.9 N 24 35 13 19 1007.3 1007.4 0.0
31/07:00pm 8.8 3.2 0.0 54 3.5 NNW 19 30 10 16 1007.8 1007.9 0.0
31/06:30pm 8.9 4.5 0.5 55 3.4 N 13 19 7 10 1008.4 1008.5 0.0
31/06:00pm 9.1 4.4 1.1 57 3.3 N 15 22 8 12 1008.5 1008.7 0.0
31/05:30pm 9.2 4.5 0.6 55 3.5 N 15 20 8 11 1008.6 1008.8 0.0
31/05:00pm 9.6 4.8 0.5 53 3.7 NW 15 22 8 12 1008.5 1008.7 0.0
31/04:30pm 10.2 4.4 -0.2 48 4.2 NW 20 32 11 17 1008.7 1008.9 0.0
31/04:00pm 10.8 4.6 -0.3 46 4.5 NW 22 30 12 16 1009.1 1009.3 0.0
31/03:30pm 11.0 5.2 -0.4 45 4.6 NW 20 30 11 16 1009.8 1010.0 0.0
31/03:00pm 10.8 4.5 -1.0 44 4.7 NNW 22 37 12 20 1009.9 1010.1 0.0
31/02:30pm 10.6 4.0 -0.6 46 4.5 NNW 24 35 13 19 1010.2 1010.4 0.0
31/02:00pm 10.8 4.9 -1.0 44 4.7 NNW 20 32 11 17 1010.6 1010.7 0.0
31/01:30pm 10.3 4.5 -0.4 47 4.3 NNW 20 35 11 19 1011.3 1011.4 0.0
31/01:00pm 9.6 4.4 0.2 52 3.8 NW 17 24 9 13 1012.0 1012.1 0.0
31/12:30pm 9.3 4.4 -0.6 50 3.9 NNW 15 22 8 12 1012.5 1012.6 0.0
31/12:00pm 8.9 4.0 -0.5 51 3.7 N 15 24 8 13 1013.0 1013.1 0.0
31/11:30am 8.5 3.9 -1.1 51 3.7 N 13 19 7 10 1013.4 1013.5 0.0
31/11:00am 8.1 2.7 -1.0 52 3.5 N 17 28 9 15 1013.4 1013.5 0.0
31/10:30am 8.0 2.1 -1.1 52 3.5 N 20 33 11 18 1013.5 1013.6 0.0
31/10:00am 7.9 1.9 -1.3 52 3.5 NNW 20 32 11 17 1013.3 1013.4 0.0
31/09:30am 7.6 1.3 -1.3 53 3.4 NNW 22 32 12 17 1013.0 1013.1 0.0
31/09:00am 7.4 0.3 -1.3 54 3.3 NNW 26 35 14 19 1013.1 1013.2 0.2
31/08:30am 7.5 0.7 -1.8 51 3.5 NNW 24 35 13 19 1013.0 1013.1 0.2
31/08:00am 7.0 1.1 -2.2 52 3.4 NNW 19 30 10 16 1012.6 1012.7 0.2
31/07:30am 6.8 0.7 -2.5 51 3.4 NNW 20 32 11 17 1012.5 1012.6 0.2
31/07:00am 6.4 -0.9 -2.7 52 3.3 N 26 37 14 20 1012.2 1012.3 0.2
31/06:30am 6.2 -1.1 -2.6 53 3.2 N 26 37 14 20 1011.8 1011.9 0.2
31/06:00am 6.3 -1.3 -2.5 53 3.2 N 28 39 15 21 1011.4 1011.5 0.2
31/05:30am 6.5 0.3 -2.9 51 3.4 N 20 32 11 17 1011.1 1011.2 0.2
31/05:00am 6.3 0.7 -2.5 53 3.2 NNW 17 24 9 13 1011.0 1011.1 0.2
31/04:30am 5.8 1.1 -1.8 58 2.8 WNW 13 22 7 12 1010.9 1011.0 0.2
31/04:00am 6.0 0.0 -1.5 58 2.8 NNW 20 32 11 17 1010.2 1010.4 0.2
31/03:30am 6.2 0.8 -1.6 57 2.9 NW 17 26 9 14 1010.4 1010.5 0.2
31/03:00am 6.1 1.9 -1.1 60 2.7 WNW 11 19 6 10 1009.8 1010.0 0.2
31/02:30am 6.2 1.2 -1.3 58 2.8 NW 15 24 8 13 1009.6 1009.8 0.2
31/02:00am 6.6 3.4 -0.4 61 2.7 NNW 6 13 3 7 1009.4 1009.6 0.2
31/01:30am 7.4 0.3 -4.2 43 4.1 W 24 44 13 24 1008.7 1008.9 0.2
31/01:00am 7.4 1.2 -3.4 46 3.9 W 20 48 11 26 1008.2 1008.3 0.2
31/12:30am 7.0 2.5 -0.2 60 2.8 WSW 13 30 7 16 1007.7 1007.8 0.2
31/12:00am 7.8 3.0 -2.4 48 3.8 WSW 13 28 7 15 1006.8 1006.9 0.2
 
Date/Time
EST
Temp
°C
App
Temp
°C
Dew
Point
Rel
Hum
%
Delta-T
°C
Wind Press
QNH
hPa
Press
MSL
hPa
Rain
since 9 am
mm
Dir
 
Spd
km/h
Gust
km/h
Spd
kts
Gust
kts
30/11:30pm 7.6 2.6 -1.3 53 3.4 WSW 15 28 8 15 1006.7 1006.8 0.2
30/11:00pm 7.6 0.5 -1.3 53 3.4 WSW 26 46 14 25 1006.2 1006.3 0.2
30/10:30pm 7.7 -0.2 -1.5 52 3.5 SW 30 54 16 29 1005.6 1005.7 0.2
30/10:25pm 7.7 0.2 -1.2 53 3.4 SW 28 48 15 26 1005.4 1005.5 0.2
30/10:00pm 8.1 1.9 0.0 56 3.2 SW 22 37 12 20 1004.9 1005.0 0.2
30/09:30pm 8.8 3.3 0.7 57 3.3 WSW 19 52 10 28 1004.0 1004.1 0.2
30/09:23pm 8.9 3.8 0.8 57 3.3 WNW 17 52 9 28 1003.8 1003.9 0.2
30/09:00pm 9.7 4.6 1.0 54 3.6 WNW 17 33 9 18 1003.0 1003.1 0.2
30/08:30pm 9.8 2.8 1.7 57 3.4 NW 28 56 15 30 1001.8 1001.9 0.2
30/08:22pm 9.5 2.6 2.5 61 3.0 NW 28 46 15 25 1001.6 1001.7 0.2
30/08:00pm 9.7 4.1 3.3 64 2.8 NNW 22 32 12 17 1000.6 1000.7 0.2
30/07:30pm 9.5 2.9 4.4 70 2.3 NW 28 43 15 23 1000.1 1000.2 0.2
30/07:00pm 11.1 0.8 2.9 57 3.6 NW 46 74 25 40 998.2 998.3 0.0
30/06:30pm 11.9 1.4 1.4 48 4.5 NW 46 69 25 37 997.0 997.1 0.0
30/06:00pm 12.0 2.8 1.5 48 4.5 NW 39 63 21 34 996.8 996.9 0.0
30/05:30pm 12.2 3.0 1.2 47 4.7 NW 39 57 21 31 997.3 997.4 0.0
30/05:00pm 12.3 1.8 1.3 47 4.7 NW 46 80 25 43 997.8 997.9 0.0
30/04:30pm 12.6 2.7 1.5 46 4.7 NW 43 67 23 36 998.3 998.4 0.0
30/04:00pm 13.0 3.9 1.7 46 4.9 NW 39 63 21 34 998.9 999.0 0.0
30/03:30pm 13.7 5.8 1.2 42 5.4 NNW 32 52 17 28 999.4 999.5 0.0
30/03:00pm 13.7 4.1 0.9 41 5.5 NNW 41 63 22 34 999.6 999.7 0.0
30/02:30pm 14.0 4.0 0.7 40 5.7 NNW 43 80 23 43 1000.1 1000.2 0.0
30/02:00pm 14.2 3.5 0.0 38 6.0 NNW 46 70 25 38 1000.8 1000.9 0.0
30/01:30pm 13.7 3.0 -0.1 38 5.8 NNW 46 72 25 39 1001.8 1001.9 0.0
30/01:00pm 13.6 3.7 -0.6 37 5.9 NNW 41 65 22 35 1002.6 1002.7 0.0
30/12:30pm 13.9 3.6 -0.9 36 6.1 NNW 43 65 23 35 1003.7 1003.8 0.0
30/12:00pm 13.8 3.9 -0.7 37 6.0 NNW 41 65 22 35 1005.2 1005.3 0.0
30/11:40am 13.9 6.2 0.2 39 5.8 NNW 30 50 16 27 1006.1 1006.2 0.0
30/11:30am 13.7 6.0 -0.2 38 5.8 NNW 30 41 16 22 1006.7 1006.8 0.0
30/11:00am 12.5 3.9 0.3 43 5.1 NNW 35 54 19 29 1007.4 1007.5 0.0
30/10:36am 11.6 3.5 1.2 49 4.4 NNW 33 52 18 28 1008.6 1008.8 0.0
30/10:30am 11.7 2.8 1.0 48 4.5 NNW 37 52 20 28 1008.6 1008.8 0.0
30/10:00am 10.9 0.9 1.1 51 4.1 NNW 43 57 23 31 1008.8 1009.0 0.0
30/09:30am 10.8 0.7 0.3 48 4.3 NW 43 56 23 30 1009.6 1009.8 0.0
30/09:00am 10.6 0.5 0.3 49 4.2 NW 43 59 23 32 1009.9 1010.1 0.0
30/08:30am 10.4 0.4 0.7 51 4.0 NW 43 61 23 33 1010.2 1010.4 0.0
30/08:00am 10.8 0.6 0.0 47 4.4 NW 43 63 23 34 1010.7 1010.8 0.0
30/07:30am 11.0 0.6 -0.1 46 4.5 NW 44 72 24 39 1011.2 1011.3 0.0
30/07:25am 10.9 0.8 0.1 47 4.4 NW 43 72 23 39 1011.3 1011.4 0.0
30/07:00am 10.6 2.1 0.6 50 4.1 NW 35 54 19 29 1011.7 1011.8 0.0
30/06:43am 10.4 2.3 1.0 52 3.9 NW 33 69 18 37 1012.3 1012.4 0.0
30/06:30am 10.3 2.4 1.2 53 3.8 NW 32 50 17 27 1012.5 1012.6 0.0
30/06:00am 10.3 2.7 0.8 51 3.9 NW 30 48 16 26 1012.8 1012.9 0.0
30/05:40am 10.2 3.0 1.0 53 3.8 NW 28 52 15 28 1013.1 1013.2 0.0
30/05:30am 10.2 4.2 1.3 54 3.7 NW 22 43 12 23 1013.5 1013.6 0.0
30/05:00am 10.1 5.4 1.2 54 3.7 NNW 15 32 8 17 1014.5 1014.6 0.0
30/04:30am 10.1 4.1 0.9 53 3.8 NNW 22 35 12 19 1014.5 1014.6 0.0
30/04:00am 9.8 2.7 1.1 54 3.6 NW 28 39 15 21 1014.7 1014.8 0.0
30/03:45am 9.8 2.7 1.1 54 3.6 NW 28 48 15 26 1014.8 1014.9 0.0
30/03:30am 9.8 3.1 1.4 56 3.5 NW 26 39 14 21 1015.2 1015.3 0.0
30/03:01am 9.8 2.8 2.0 58 3.3 NW 28 46 15 25 1015.6 1015.7 0.0
30/03:00am 9.8 2.4 2.0 58 3.3 NW 30 46 16 25 1015.6 1015.7 0.0
30/02:53am 10.0 3.0 1.9 57 3.4 NW 28 46 15 25 1015.7 1015.8 0.0
30/02:30am 10.1 2.8 2.3 58 3.3 NW 30 43 16 23 1016.1 1016.2 0.0
30/02:00am 10.2 5.1 3.0 61 3.1 NNW 19 32 10 17 1016.9 1017.0 0.0
30/01:30am 10.3 3.9 3.2 61 3.1 NNW 26 43 14 23 1017.5 1017.6 0.0
30/01:23am 10.4 3.6 3.0 60 3.2 NNW 28 46 15 25 1017.4 1017.5 0.0
30/01:00am 10.5 2.9 2.9 59 3.3 NNW 32 46 17 25 1017.5 1017.6 0.0
30/12:30am 10.6 2.8 2.7 58 3.4 NW 33 48 18 26 1017.6 1017.7 0.0
30/12:00am 10.3 2.7 2.9 60 3.2 NNW 32 44 17 24 1017.9 1018.0 0.0
 
Date/Time
EST
Temp
°C
App
Temp
°C
Dew
Point
Rel
Hum
%
Delta-T
°C
Wind Press
QNH
hPa
Press
MSL
hPa
Rain
since 9 am
mm
Dir
 
Spd
km/h
Gust
km/h
Spd
kts
Gust
kts
29/11:30pm 10.3 3.5 2.9 60 3.2 NNW 28 39 15 21 1018.4 1018.5 0.0
29/11:00pm 10.2 2.9 2.7 59 3.2 NNW 30 39 16 21 1018.9 1019.0 0.0
29/10:30pm 9.9 5.3 3.5 64 2.8 NNW 17 24 9 13 1019.7 1019.8 0.0
29/10:00pm 9.9 5.7 3.7 65 2.7 NW 15 22 8 12 1020.1 1020.2 0.0
29/09:30pm 10.1 8.0 3.7 64 2.8 NE 4 9 2 5 1020.7 1020.8 0.0
29/09:00pm 10.2 7.2 4.1 66 2.7 NW 9 13 5 7 1020.9 1021.0 0.0
29/08:30pm 10.2 6.8 4.1 66 2.7 NW 11 17 6 9 1021.1 1021.2 0.0
29/08:00pm 10.7 7.3 4.2 64 2.9 NNW 11 19 6 10 1021.1 1021.2 0.0

Other Formats:

Comma delimited format used in spreadsheet applications
http://www.bom.gov.au/fwo/IDT60801/IDT60801.94970.axf

JavaScript Object Notation format (JSON) in row-major order
http://www.bom.gov.au/fwo/IDT60801/IDT60801.94970.json